Canton, MS (39046)

11:34 AM CST on February 14, 2016 (GMT -0600)
Helms Farms | | Change Station
CLOSE
Current Station
Personal Weather Station
Location: Canton, MS
Elevation: 269 ft
Nearby Weather Stations

Elev 269 ft 32.54 °N, 90.04 °W | Updated 8 seconds ago

Overcast
Overcast
50.4 °F
Feels Like 50.4 °F
N
3.4
Wind Variable Wind from ESE
Gusts 4.9 mph

Today
High -- | Low -- °F
--% Chance of Precip.
Yesterday
High -- | Low -- °F
Precip. -- in
Pressure 30.20 in
Visibility 10.0 miles
Clouds Overcast 6000 ft
Dew Point 24 °F
Humidity 36%
Rainfall 0.00 in
Snow Depth Not available.
6:44 AM 5:44 PM
Waxing Crescent, 43% visible
METAR KJAN 141654Z 16007KT 10SM OVC060 09/M04 A3019 RMK AO2 SLP225 T00941044
Pressure 30.20 in
Visibility 10.0 miles
Clouds Overcast 6000 ft
Dew Point 24 °F
Humidity 36%
Rainfall 0.00 in
Snow Depth Not available.
6:44 AM 5:44 PM
Waxing Crescent, 43% visible
METAR KJAN 141654Z 16007KT 10SM OVC060 09/M04 A3019 RMK AO2 SLP225 T00941044

10-Day Weather Forecast

Almanac

Astronomy

Feb. 14, 2016 Rise Set
Actual Time
Civil Twilight
Nautical Twilight
Astronomical Twilight
Moon
Length of Visible Light
Length of Day
Tomorrow will be .
, % of the Moon is Illuminated

Today's Extremes

State Highs State Lows

Community

WunderPhotos

Upload Photos

1,892,859 photos uploaded!

WunderBlog® & News

Nearby

Air Quality

  Air Quality AQ Index Pollutant
Not available.

Snow Depth

Station Depth Elevation

Earthquake Activity

City Distance Mag. Time & Date
Minimum magnitude displayed is 2.5.

Coastal Water Temperatures

Place Temperature

Stations

Nearby Weather Stations

Station Location Temp. Windchill Dew Point Humidity Wind Precip. Elev Updated Type
                   

Watches & Warnings

There are currently no watches in effect.